N122WA KLAS-KEGE
Flight info
| Callsign | N122WA |
|---|---|
| Flight time | N/A |
| Altitude | 17000 |
| Route | LAS V394 MMM/N0187F210 DICEE IBSKI BUGGG EKR RLG |
| Aircraft | AEST/L-SDFGRY/S |
Departure
| Time | 2026-05-04 23:24 |
|---|---|
| Airport | Harry Reid International Airport (KLAS) |
Arrival
| Time | N/A |
|---|---|
| Airport | Eagle County Regional Airport (KEGE) |
| Time | Latitude | Longitude | Altitude | Speed | Heading |
|---|---|---|---|---|---|
| 2026-05-04 22:59 | 36.08093 | -115.17104 | 2183 ft | 0 kts | 90° |
| 2026-05-04 23:18 | 36.08093 | -115.17098 | 2183 ft | 4 kts | 82° |
| 2026-05-04 23:18 | 36.08135 | -115.17076 | 2183 ft | 11 kts | 34° |
| 2026-05-04 23:18 | 36.08149 | -115.16970 | 2183 ft | 13 kts | 89° |
| 2026-05-04 23:18 | 36.08221 | -115.16886 | 2183 ft | 20 kts | 25° |
| 2026-05-04 23:19 | 36.08376 | -115.16797 | 2184 ft | 28 kts | 24° |
| 2026-05-04 23:19 | 36.08544 | -115.16700 | 2184 ft | 26 kts | 24° |
| 2026-05-04 23:19 | 36.08713 | -115.16605 | 2183 ft | 27 kts | 26° |
| 2026-05-04 23:19 | 36.08865 | -115.16516 | 2183 ft | 22 kts | 24° |
| 2026-05-04 23:20 | 36.08960 | -115.16411 | 2183 ft | 14 kts | 104° |
| 2026-05-04 23:20 | 36.08941 | -115.16358 | 2184 ft | 0 kts | 115° |
| 2026-05-04 23:22 | 36.08941 | -115.16357 | 2184 ft | 1 kts | 115° |
| 2026-05-04 23:22 | 36.08918 | -115.16298 | 2185 ft | 14 kts | 116° |
| 2026-05-04 23:23 | 36.08774 | -115.16326 | 2185 ft | 46 kts | 204° |
| 2026-05-04 23:23 | 36.08347 | -115.16584 | 2189 ft | 85 kts | 210° |
| 2026-05-04 23:23 | 36.07779 | -115.16900 | 2235 ft | 92 kts | 205° |
| 2026-05-04 23:23 | 36.07195 | -115.17151 | 2453 ft | 88 kts | 201° |
| 2026-05-04 23:24 | 36.06533 | -115.16985 | 2566 ft | 109 kts | 147° |
| 2026-05-04 23:24 | 36.06226 | -115.16127 | 2788 ft | 124 kts | 110° |
| 2026-05-04 23:24 | 36.05622 | -115.15512 | 3071 ft | 107 kts | 180° |
| 2026-05-04 23:24 | 36.04955 | -115.15507 | 3423 ft | 92 kts | 182° |
| 2026-05-04 23:25 | 36.04299 | -115.15369 | 3579 ft | 99 kts | 163° |
| 2026-05-04 23:25 | 36.03662 | -115.15064 | 3823 ft | 97 kts | 160° |
| 2026-05-04 23:25 | 36.03121 | -115.14581 | 4063 ft | 94 kts | 157° |
| 2026-05-04 23:25 | 36.02560 | -115.14196 | 4297 ft | 88 kts | 156° |
| 2026-05-04 23:26 | 36.02053 | -115.13777 | 4420 ft | 89 kts | 156° |
| 2026-05-04 23:26 | 36.01527 | -115.13324 | 4422 ft | 94 kts | 156° |
| 2026-05-04 23:26 | 36.01001 | -115.12870 | 4486 ft | 91 kts | 156° |
| 2026-05-04 23:26 | 36.00468 | -115.12430 | 4517 ft | 92 kts | 161° |
| 2026-05-04 23:27 | 35.99970 | -115.11831 | 4502 ft | 102 kts | 143° |
| 2026-05-04 23:27 | 35.99423 | -115.11237 | 4550 ft | 109 kts | 163° |
| 2026-05-04 23:27 | 35.98731 | -115.11024 | 4677 ft | 98 kts | 179° |
| 2026-05-04 23:27 | 35.98088 | -115.10788 | 4739 ft | 97 kts | 167° |
| 2026-05-04 23:28 | 35.97469 | -115.10611 | 4893 ft | 86 kts | 205° |
| 2026-05-04 23:28 | 35.96890 | -115.10394 | 4772 ft | 101 kts | 134° |
| 2026-05-04 23:28 | 35.96657 | -115.09554 | 4840 ft | 110 kts | 97° |
| 2026-05-04 23:28 | 35.96840 | -115.08569 | 4889 ft | 119 kts | 77° |
| 2026-05-04 23:29 | 35.97273 | -115.07736 | 4928 ft | 124 kts | 28° |
| 2026-05-04 23:29 | 35.98066 | -115.07660 | 5062 ft | 109 kts | 326° |
| 2026-05-04 23:29 | 35.98502 | -115.08315 | 5155 ft | 94 kts | 279° |
| 2026-05-04 23:29 | 35.98726 | -115.09009 | 5236 ft | 88 kts | 274° |
| 2026-05-04 23:30 | 35.98705 | -115.09832 | 4982 ft | 107 kts | 294° |
| 2026-05-04 23:30 | 35.99379 | -115.10349 | 4889 ft | 132 kts | 346° |
| 2026-05-04 23:30 | 36.00008 | -115.10271 | 4913 ft | 142 kts | 6° |
| 2026-05-04 23:30 | 36.00920 | -115.09890 | 5166 ft | 131 kts | 19° |
| 2026-05-04 23:31 | 36.01678 | -115.09399 | 5339 ft | 126 kts | 45° |